Terminal Aerodrome Forecast
Issued by NWS Charleston, WV

Current Version | Previous Version | Graphics & Text | Print | Product List | Glossary On
Versions: 1 2 3 4 5 6 7 8 9 10 11 12 13 14 15 16 17 18 19 20 21 22 23 24 25 26 27 28 29 30 31 32 33 34 35 36 37
000
FTUS41 KRLX 222200 AAC
TAFEKN
TAF AMD
KEKN 222207Z 2222/2318 33005KT 5SM -RA BR BKN009 OVC015
     FM230000 31009KT P6SM OVC020
     FM231500 31007KT P6SM OVC025=

USA.gov is the U.S. government's official web portal to all federal, state and local government web resources and services.